Time;durP1;ratioP1;P1;durP2;ratioP2;P2;SDS_P1;SDS_P2;PMS_P1;PMS_P2;Temp;Humidity;BMP_temperature;BMP_pressure;BME280_temperature;BME280_humidity;BME280_pressure;Samples;Min_cycle;Max_cycle;Signal;HPM_P1;HPM_P2
2021/12/18 00:01:28;;;;;;;38.20;28.27;;;;;;;3.95;64.49;100247.03;5094021;28;20035;-51
2021/12/18 00:03:54;;;;;;;38.55;27.90;;;;;;;3.94;64.18;100239.38;5093985;28;20020;-51
2021/12/18 00:06:20;;;;;;;47.85;37.88;;;;;;;3.91;64.33;100245.63;5093948;28;20432;-51
2021/12/18 00:08:46;;;;;;;169.18;67.32;;;;;;;3.92;64.51;100236.06;5092561;28;20477;-50
2021/12/18 00:11:12;;;;;;;77.30;44.03;;;;;;;4.00;64.71;100241.47;5092337;28;20118;-51
2021/12/18 00:13:38;;;;;;;358.10;317.08;;;;;;;4.16;64.08;100233.31;5093796;28;20074;-50
2021/12/18 00:16:06;;;;;;;293.15;262.52;;;;;;;4.31;64.27;100239.91;5092371;28;20436;-50
2021/12/18 00:18:34;;;;;;;1849.30;712.60;;;;;;;4.31;63.94;100247.72;5093643;28;20397;-51
2021/12/18 00:21:00;;;;;;;848.55;592.40;;;;;;;4.24;63.91;100245.72;5092261;28;20465;-50
2021/12/18 00:23:27;;;;;;;1483.28;854.58;;;;;;;4.29;64.07;100238.41;5093571;28;20415;-50
2021/12/18 00:25:53;;;;;;;265.60;191.38;;;;;;;4.28;63.15;100234.94;5093538;28;20047;-50
2021/12/18 00:28:19;;;;;;;100.28;70.00;;;;;;;4.20;63.52;100227.78;5092195;28;20016;-51
2021/12/18 00:30:45;;;;;;;69.45;42.80;;;;;;;4.07;63.54;100224.50;5093198;28;20090;-51
2021/12/18 00:33:11;;;;;;;47.67;30.17;;;;;;;3.98;63.71;100228.63;5092001;28;20401;-51
2021/12/18 00:35:37;;;;;;;46.03;29.10;;;;;;;3.99;63.98;100221.66;5093315;28;20025;-51
2021/12/18 00:38:06;;;;;;;42.05;27.85;;;;;;;4.03;64.07;100222.25;5093281;28;20073;-50
2021/12/18 00:40:44;;;;;;;35.53;24.33;;;;;;;4.08;64.33;100207.94;5091898;28;20050;-50
2021/12/18 00:43:25;;;;;;;31.20;21.33;;;;;;;4.20;63.66;100224.34;5093297;28;20028;-50
2021/12/18 00:45:51;;;;;;;32.70;22.17;;;;;;;4.24;63.73;100228.34;5093202;28;20034;-50
2021/12/18 00:48:17;;;;;;;40.35;23.35;;;;;;;4.36;63.90;100221.34;5091792;28;20110;-50
2021/12/18 00:50:43;;;;;;;69.78;39.67;;;;;;;4.62;65.20;100221.03;5093008;28;20016;-50
2021/12/18 00:53:08;;;;;;;46.65;28.02;;;;;;;4.90;64.52;100222.22;5092902;28;20111;-50
2021/12/18 00:55:36;;;;;;;52.17;30.17;;;;;;;4.97;64.38;100220.75;5092939;28;20053;-51
2021/12/18 00:58:02;;;;;;;40.55;23.73;;;;;;;5.19;64.29;100217.19;5092930;28;20394;-51
2021/12/18 01:00:28;;;;;;;37.38;26.63;;;;;;;5.08;62.56;100220.72;5092780;28;20020;-50
2021/12/18 01:02:58;;;;;;;46.55;27.05;;;;;;;4.86;63.42;100216.44;5092552;28;20024;-51
2021/12/18 01:05:25;;;;;;;360.48;226.65;;;;;;;4.97;63.68;100215.56;5093075;28;20092;-51
2021/12/18 01:07:52;;;;;;;485.20;324.65;;;;;;;5.09;63.82;100219.78;5092749;28;20051;-51
2021/12/18 01:13:05;;;;;;;181.70;122.07;;;;;;;5.51;62.84;100208.47;5092622;28;20039;-51
2021/12/18 01:15:35;;;;;;;54.42;36.30;;;;;;;5.86;63.12;100210.69;5092555;28;20016;-50
2021/12/18 01:23:30;;;;;;;48.67;26.38;;;;;;;6.97;60.04;100212.22;5092517;28;20081;-51
2021/12/18 01:25:57;;;;;;;29.27;21.75;;;;;;;7.02;59.04;100209.16;5091057;28;20032;-51
2021/12/18 01:28:23;;;;;;;30.25;21.48;;;;;;;6.93;58.71;100210.03;5090841;28;20020;-52
2021/12/18 01:30:50;;;;;;;29.98;21.35;;;;;;;6.94;58.65;100202.06;5092232;28;20031;-51
2021/12/18 01:33:16;;;;;;;29.65;20.67;;;;;;;7.05;57.85;100205.47;5092239;28;20028;-50
2021/12/18 01:35:45;;;;;;;28.58;20.83;;;;;;;7.11;57.28;100212.75;5092244;28;20028;-51
2021/12/18 01:38:11;;;;;;;26.83;19.20;;;;;;;7.09;57.92;100202.44;5092539;28;20436;-50
2021/12/18 01:40:38;;;;;;;30.23;21.52;;;;;;;6.96;57.86;100200.13;5092145;28;20024;-50
2021/12/18 01:51:19;;;;;;;29.35;20.90;;;;;;;6.16;58.38;100199.41;5092250;28;20500;-51
2021/12/18 01:53:47;;;;;;;29.88;20.73;;;;;;;6.11;58.79;100198.16;5092065;28;20024;-51
2021/12/18 01:56:13;;;;;;;36.85;24.45;;;;;;;6.21;59.66;100199.00;5091967;28;20023;-50
2021/12/18 01:58:40;;;;;;;27.25;20.48;;;;;;;6.40;59.03;100193.00;5091956;28;20017;-51
2021/12/18 02:01:06;;;;;;;26.70;20.88;;;;;;;6.56;58.57;100195.06;5090629;28;20115;-50
2021/12/18 02:03:33;;;;;;;28.40;20.25;;;;;;;6.55;58.50;100190.81;5091966;28;20040;-51
2021/12/18 02:05:58;;;;;;;27.42;21.15;;;;;;;6.53;58.41;100203.16;5091844;28;20027;-51
2021/12/18 02:08:26;;;;;;;31.42;20.92;;;;;;;6.54;58.20;100202.19;5092205;28;20017;-48
2021/12/18 02:11:14;;;;;;;52.30;41.63;;;;;;;6.61;59.24;100203.31;5091796;28;20104;-51
2021/12/18 02:21:58;;;;;;;31.48;19.95;;;;;;;6.58;58.15;100201.78;5095947;28;20112;-51
2021/12/18 02:24:26;;;;;;;26.30;20.38;;;;;;;6.55;58.52;100196.03;5094555;28;20031;-50
2021/12/18 02:26:53;;;;;;;31.17;21.77;;;;;;;6.51;58.75;100187.66;5095795;28;20031;-51
2021/12/18 02:29:18;;;;;;;28.33;20.55;;;;;;;6.49;58.86;100194.78;5095494;28;20429;-50
2021/12/18 02:31:45;;;;;;;28.38;21.20;;;;;;;6.58;58.93;100191.38;5095587;28;20016;-50
2021/12/18 02:34:18;;;;;;;27.75;20.27;;;;;;;6.57;58.21;100184.47;5095701;28;20031;-50
2021/12/18 02:36:48;;;;;;;25.40;21.17;;;;;;;6.60;58.62;100175.59;5095669;28;20031;-49
2021/12/18 02:39:35;;;;;;;25.48;20.48;;;;;;;6.62;58.60;100171.06;5095686;28;20097;-51
2021/12/18 02:42:08;;;;;;;28.85;20.23;;;;;;;6.62;58.36;100172.81;5095579;28;20073;-51
2021/12/18 02:44:39;;;;;;;28.65;19.10;;;;;;;6.59;58.78;100164.31;5095567;28;20032;-51
2021/12/18 02:47:05;;;;;;;38.33;25.70;;;;;;;6.49;58.35;100163.47;5095507;28;20020;-50
2021/12/18 02:49:31;;;;;;;29.27;20.48;;;;;;;6.59;59.17;100158.28;5095439;28;20016;-51
2021/12/18 02:51:57;;;;;;;27.60;19.70;;;;;;;6.72;58.94;100152.75;5095199;28;20502;-51
2021/12/18 02:54:23;;;;;;;30.98;20.58;;;;;;;6.92;58.72;100159.63;5095402;28;20016;-51
2021/12/18 02:56:49;;;;;;;27.38;20.58;;;;;;;7.05;58.52;100161.09;5095303;28;20516;-51
2021/12/18 02:59:16;;;;;;;38.85;31.25;;;;;;;7.14;58.02;100155.00;5095207;28;20066;-50
2021/12/18 03:01:42;;;;;;;30.20;23.42;;;;;;;7.14;57.58;100160.25;5095195;28;20028;-50
2021/12/18 03:04:33;;;;;;;24.88;19.85;;;;;;;7.08;58.07;100161.63;5095133;28;20031;-50
2021/12/18 03:06:59;;;;;;;27.35;19.77;;;;;;;7.15;57.92;100159.28;5094922;28;20036;-50
2021/12/18 03:09:52;;;;;;;25.38;19.48;;;;;;;7.04;57.54;100156.84;5095036;28;20146;-50
2021/12/18 03:23:29;;;;;;;30.45;22.45;;;;;;;7.11;57.97;100160.53;5094733;28;20032;-51
2021/12/18 03:26:00;;;;;;;25.88;19.60;;;;;;;7.13;57.38;100153.38;5094404;28;20035;-51
2021/12/18 03:28:27;;;;;;;28.88;21.40;;;;;;;7.18;57.38;100153.75;5094472;28;20030;-50
2021/12/18 03:30:55;;;;;;;27.73;21.00;;;;;;;7.08;57.84;100148.56;5094682;28;20103;-50
2021/12/18 03:33:21;;;;;;;26.83;21.02;;;;;;;6.98;57.98;100143.41;5094555;28;20049;-51
2021/12/18 03:35:47;;;;;;;30.13;22.52;;;;;;;7.07;57.87;100140.91;5094572;28;20046;-49
2021/12/18 03:38:13;;;;;;;26.35;21.75;;;;;;;7.12;57.83;100131.69;5094437;28;20031;-50
2021/12/18 03:40:38;;;;;;;24.65;19.55;;;;;;;7.15;57.87;100131.38;5094429;28;20020;-51
2021/12/18 03:43:05;;;;;;;30.92;23.85;;;;;;;7.15;57.91;100134.00;5094444;28;20059;-50
2021/12/18 03:45:30;;;;;;;25.45;20.35;;;;;;;7.24;57.66;100129.69;5094401;28;20031;-50
2021/12/18 03:47:56;;;;;;;25.77;21.30;;;;;;;7.32;56.95;100132.41;5093055;28;20106;-50
2021/12/18 03:50:22;;;;;;;26.10;20.08;;;;;;;7.30;56.86;100126.50;5094261;28;20024;-51
2021/12/18 03:52:49;;;;;;;26.65;20.30;;;;;;;7.33;56.94;100130.66;5092793;28;20512;-51
2021/12/18 03:55:15;;;;;;;30.90;20.77;;;;;;;7.24;58.03;100126.28;5094131;28;20661;-50
2021/12/18 03:57:41;;;;;;;28.38;20.95;;;;;;;7.34;57.54;100124.44;5094176;28;20020;-50
2021/12/18 04:00:10;;;;;;;26.95;19.70;;;;;;;7.42;57.41;100113.28;5094058;28;20394;-51
2021/12/18 04:02:35;;;;;;;29.42;21.10;;;;;;;7.42;57.45;100115.91;5094065;28;20043;-51
2021/12/18 04:05:01;;;;;;;27.27;20.98;;;;;;;7.36;57.05;100106.84;5093990;28;20667;-51
2021/12/18 04:07:27;;;;;;;30.48;24.35;;;;;;;7.15;57.89;100101.84;5093925;28;20036;-50
2021/12/18 04:09:53;;;;;;;29.05;21.65;;;;;;;6.97;58.11;100099.16;5092800;28;20028;-50
2021/12/18 04:12:18;;;;;;;33.13;23.90;;;;;;;6.84;58.34;100096.88;5093733;28;20020;-50
2021/12/18 04:14:44;;;;;;;29.80;20.33;;;;;;;7.07;58.08;100089.50;5092421;28;20035;-51
2021/12/18 04:17:11;;;;;;;27.08;20.42;;;;;;;7.29;58.32;100100.56;5093699;28;20028;-50
2021/12/18 04:19:37;;;;;;;25.27;19.58;;;;;;;7.54;57.24;100104.28;5093766;28;20069;-50
2021/12/18 04:22:03;;;;;;;23.15;19.27;;;;;;;7.67;56.95;100106.56;5093574;28;20036;-50
2021/12/18 04:24:29;;;;;;;35.20;24.10;;;;;;;7.77;56.81;100107.34;5093575;28;20105;-50
2021/12/18 04:26:55;;;;;;;29.67;19.80;;;;;;;7.77;56.75;100110.75;5092259;28;20115;-50
2021/12/18 04:29:21;;;;;;;30.08;22.35;;;;;;;7.79;57.06;100118.47;5093281;28;20416;-50
2021/12/18 04:31:46;;;;;;;24.98;20.60;;;;;;;7.78;56.80;100115.00;5093396;28;20020;-51
2021/12/18 04:34:12;;;;;;;25.73;21.02;;;;;;;7.87;57.04;100117.69;5093460;28;20028;-51
2021/12/18 04:36:38;;;;;;;26.67;20.20;;;;;;;7.87;56.58;100121.16;5092665;28;20024;-49
2021/12/18 04:39:04;;;;;;;25.52;19.63;;;;;;;7.86;56.71;100126.53;5093344;28;20028;-50
2021/12/18 04:41:48;;;;;;;34.65;26.85;;;;;;;7.92;56.94;100124.13;5093293;28;20024;-50
2021/12/18 04:44:15;;;;;;;31.83;21.05;;;;;;;7.97;56.76;100121.91;5093267;28;20031;-50
2021/12/18 04:46:40;;;;;;;27.17;21.17;;;;;;;7.93;56.63;100119.75;5093142;28;20035;-50
2021/12/18 04:49:07;;;;;;;30.52;23.40;;;;;;;7.90;56.72;100118.25;5093196;28;20027;-51
2021/12/18 04:51:33;;;;;;;24.02;19.02;;;;;;;7.91;56.77;100122.50;5092921;28;20107;-49
2021/12/18 04:53:59;;;;;;;32.58;22.98;;;;;;;7.77;56.70;100121.22;5092994;28;20026;-50
2021/12/18 04:56:25;;;;;;;33.75;25.67;;;;;;;7.49;57.57;100123.00;5093011;28;20024;-50
2021/12/18 04:58:51;;;;;;;29.38;23.35;;;;;;;7.37;58.81;100119.75;5091587;28;20081;-51
2021/12/18 05:01:17;;;;;;;31.33;21.35;;;;;;;7.41;57.66;100125.53;5092784;28;20020;-50
2021/12/18 05:03:44;;;;;;;26.85;20.75;;;;;;;7.37;57.69;100119.75;5092861;28;20099;-50
2021/12/18 05:06:10;;;;;;;27.15;21.67;;;;;;;7.30;58.58;100116.06;5092772;28;20024;-50
2021/12/18 05:08:36;;;;;;;29.02;22.52;;;;;;;7.30;57.91;100117.88;5091376;28;20454;-50
2021/12/18 05:11:02;;;;;;;34.53;23.10;;;;;;;7.22;58.59;100105.53;5092711;28;20037;-51
2021/12/18 05:13:28;;;;;;;35.42;25.35;;;;;;;7.27;58.85;100105.94;5092550;28;20055;-50
2021/12/18 05:15:53;;;;;;;32.28;23.08;;;;;;;7.39;59.39;100107.38;5092616;28;20044;-50
2021/12/18 05:18:19;;;;;;;32.58;22.58;;;;;;;7.60;58.58;100103.69;5091331;28;20166;-50
2021/12/18 05:20:45;;;;;;;32.85;23.77;;;;;;;7.79;58.70;100102.78;5092480;28;20043;-50
2021/12/18 05:23:10;;;;;;;32.45;23.23;;;;;;;7.90;57.99;100102.56;5092521;28;20036;-50
2021/12/18 05:25:36;;;;;;;30.65;21.98;;;;;;;7.94;57.91;100100.47;5091121;28;20497;-51
2021/12/18 05:28:02;;;;;;;35.28;24.45;;;;;;;7.86;58.04;100108.22;5092374;28;20024;-50
2021/12/18 05:30:28;;;;;;;36.95;25.60;;;;;;;7.75;58.05;100115.31;5092160;28;20044;-50
2021/12/18 05:32:53;;;;;;;35.15;25.38;;;;;;;7.49;58.57;100116.97;5090975;28;20052;-50
2021/12/18 05:35:19;;;;;;;34.08;24.02;;;;;;;7.44;59.21;100112.16;5092319;28;20499;-50
2021/12/18 05:37:50;;;;;;;35.30;25.08;;;;;;;7.46;59.11;100112.03;5092275;28;20016;-50
2021/12/18 05:40:22;;;;;;;36.03;25.58;;;;;;;7.37;59.14;100111.94;5092268;28;20060;-50
2021/12/18 05:42:49;;;;;;;35.70;26.83;;;;;;;7.33;58.82;100118.41;5092244;28;20031;-50
2021/12/18 05:45:15;;;;;;;32.05;23.92;;;;;;;7.29;59.36;100122.28;5090801;28;20023;-50
2021/12/18 05:47:43;;;;;;;37.00;26.45;;;;;;;7.31;59.26;100109.91;5092156;28;20396;-51
2021/12/18 05:50:10;;;;;;;35.53;24.10;;;;;;;7.28;59.61;100109.34;5092095;28;20023;-50
2021/12/18 05:52:36;;;;;;;35.00;24.52;;;;;;;7.26;59.50;100106.88;5091972;28;20085;-50
2021/12/18 05:55:02;;;;;;;37.65;28.88;;;;;;;7.19;59.95;100111.03;5091969;28;20032;-50
2021/12/18 05:57:28;;;;;;;35.80;25.90;;;;;;;7.24;60.35;100108.00;5092041;28;20021;-51
2021/12/18 05:59:53;;;;;;;52.45;41.78;;;;;;;7.14;60.33;100114.09;5091941;28;20111;-50
2021/12/18 06:02:19;;;;;;;38.17;28.00;;;;;;;6.96;60.45;100110.56;5091881;28;20090;-51
2021/12/18 06:04:45;;;;;;;38.88;27.23;;;;;;;7.04;61.14;100107.25;5092143;28;20085;-50
2021/12/18 06:07:27;;;;;;;41.85;28.45;;;;;;;7.12;60.06;100105.59;5091885;28;20024;-50
2021/12/18 06:09:53;;;;;;;35.40;24.17;;;;;;;6.98;60.56;100104.25;5091892;28;20028;-50
2021/12/18 06:12:19;;;;;;;42.10;30.33;;;;;;;6.71;61.26;100101.56;5091783;28;20539;-50
2021/12/18 06:14:45;;;;;;;40.25;28.77;;;;;;;6.37;61.48;100104.59;5091785;28;20020;-50
2021/12/18 06:17:11;;;;;;;41.33;29.67;;;;;;;6.48;62.37;100109.69;5091813;28;20073;-50
2021/12/18 06:19:37;;;;;;;44.28;27.17;;;;;;;6.56;62.11;100109.81;5091735;28;20405;-50
2021/12/18 06:22:03;;;;;;;38.42;27.02;;;;;;;6.59;62.87;100109.53;5091711;28;20035;-51
2021/12/18 06:24:29;;;;;;;39.13;28.90;;;;;;;6.72;61.94;100118.84;5091734;28;20024;-51
2021/12/18 06:26:56;;;;;;;42.80;27.30;;;;;;;6.72;61.19;100116.22;5091691;28;20394;-50
2021/12/18 06:29:22;;;;;;;45.53;28.27;;;;;;;6.71;62.08;100109.38;5090114;28;20040;-50
2021/12/18 06:31:48;;;;;;;39.50;29.33;;;;;;;6.81;61.38;100107.56;5090236;28;20028;-50
2021/12/18 06:34:14;;;;;;;39.30;26.98;;;;;;;6.80;62.22;100105.91;5090361;28;20016;-51
2021/12/18 06:36:40;;;;;;;49.05;32.15;;;;;;;6.93;61.48;100101.22;5090286;28;20402;-50
2021/12/18 06:39:06;;;;;;;43.03;28.70;;;;;;;7.05;61.32;100107.09;5091636;28;20028;-50
2021/12/18 06:41:32;;;;;;;39.08;27.20;;;;;;;7.12;61.18;100116.03;5091539;28;20032;-50
2021/12/18 06:43:58;;;;;;;37.28;26.02;;;;;;;7.20;61.00;100104.84;5091528;28;20103;-50
2021/12/18 06:46:24;;;;;;;205.02;151.45;;;;;;;7.33;60.64;100099.31;5091502;28;20034;-50
2021/12/18 06:48:49;;;;;;;61.03;33.13;;;;;;;7.28;60.86;100101.53;5090149;28;20517;-50
2021/12/18 06:51:17;;;;;;;48.53;34.10;;;;;;;7.26;60.81;100106.06;5091390;28;20024;-50
2021/12/18 06:53:42;;;;;;;55.15;33.92;;;;;;;7.27;61.30;100103.31;5090135;28;20032;-50
2021/12/18 06:56:08;;;;;;;44.47;29.95;;;;;;;7.31;60.61;100109.06;5091395;28;20077;-50
2021/12/18 06:58:34;;;;;;;43.42;28.02;;;;;;;7.34;60.52;100109.59;5091383;28;20023;-50
2021/12/18 07:00:59;;;;;;;43.97;28.83;;;;;;;7.32;60.35;100098.47;5094851;28;20451;-50
2021/12/18 07:03:26;;;;;;;43.60;29.63;;;;;;;6.96;60.85;100100.97;5095166;28;20028;-50
2021/12/18 07:05:51;;;;;;;41.13;28.80;;;;;;;6.76;62.00;100108.00;5095126;28;20027;-51
2021/12/18 07:08:17;;;;;;;46.33;31.23;;;;;;;6.72;61.59;100100.56;5095075;28;20024;-50
2021/12/18 07:10:43;;;;;;;47.30;32.85;;;;;;;6.71;62.16;100102.38;5094972;28;20103;-50
2021/12/18 07:13:09;;;;;;;60.90;39.75;;;;;;;6.58;62.32;100104.47;5094934;28;20028;-50
2021/12/18 07:15:37;;;;;;;45.65;30.50;;;;;;;6.71;62.25;100101.56;5094951;28;20057;-50
2021/12/18 07:18:03;;;;;;;57.13;39.65;;;;;;;6.93;62.41;100100.41;5094884;28;20026;-50
2021/12/18 07:20:29;;;;;;;46.17;29.85;;;;;;;6.90;61.56;100109.34;5094834;28;20434;-50
2021/12/18 07:22:55;;;;;;;47.85;33.63;;;;;;;6.77;62.31;100114.84;5094825;28;20024;-50
2021/12/18 07:25:21;;;;;;;47.88;32.40;;;;;;;6.64;62.34;100109.13;5093467;28;20093;-50
2021/12/18 07:27:47;;;;;;;48.20;32.40;;;;;;;6.56;62.29;100114.19;5094697;28;20035;-50
2021/12/18 07:30:13;;;;;;;44.70;28.85;;;;;;;6.84;63.03;100104.69;5094491;28;20044;-50
2021/12/18 07:32:39;;;;;;;44.15;28.13;;;;;;;7.32;61.97;100106.31;5094595;28;20026;-50
2021/12/18 07:35:07;;;;;;;44.45;31.08;;;;;;;7.37;61.47;100106.69;5093178;28;20025;-50
2021/12/18 07:37:33;;;;;;;45.40;28.77;;;;;;;7.17;60.18;100110.38;5093220;28;20100;-50
2021/12/18 07:39:58;;;;;;;39.83;29.20;;;;;;;7.13;61.76;100114.22;5094473;28;20564;-50
2021/12/18 07:42:24;;;;;;;43.42;31.33;;;;;;;7.45;61.54;100115.63;5093103;28;20084;-50
2021/12/18 07:44:51;;;;;;;43.95;32.22;;;;;;;7.36;60.48;100120.75;5093038;28;20506;-51
2021/12/18 07:47:17;;;;;;;47.72;30.10;;;;;;;6.92;61.22;100120.47;5094590;28;20028;-50
2021/12/18 07:49:44;;;;;;;41.72;29.83;;;;;;;6.82;61.81;100122.25;5094598;28;20028;-50
2021/12/18 07:52:10;;;;;;;45.33;29.15;;;;;;;6.99;62.13;100131.97;5094134;28;20028;-50
2021/12/18 07:54:36;;;;;;;45.78;31.27;;;;;;;6.99;61.19;100129.38;5094255;28;20020;-50
2021/12/18 07:57:02;;;;;;;43.80;29.98;;;;;;;6.99;61.59;100129.38;5094146;28;20020;-50
2021/12/18 07:59:27;;;;;;;45.47;29.73;;;;;;;7.06;61.48;100137.44;5094139;28;20419;-50
2021/12/18 08:01:53;;;;;;;42.10;30.83;;;;;;;7.11;61.23;100134.44;5092664;28;20094;-50
2021/12/18 08:04:19;;;;;;;44.38;28.65;;;;;;;7.08;61.64;100134.69;5092712;28;20038;-50
2021/12/18 08:06:44;;;;;;;47.22;30.45;;;;;;;7.15;61.30;100135.78;5093960;28;20035;-50
2021/12/18 08:09:10;;;;;;;45.40;28.02;;;;;;;7.25;61.54;100136.59;5092591;28;20619;-51
2021/12/18 08:11:36;;;;;;;45.78;29.45;;;;;;;7.44;61.01;100133.06;5091333;28;20038;-49
2021/12/18 08:14:01;;;;;;;55.92;38.15;;;;;;;7.72;60.61;100123.44;5093817;28;20017;-50
2021/12/18 08:16:27;;;;;;;50.83;37.50;;;;;;;7.88;60.38;100127.19;5093819;28;20020;-50
2021/12/18 08:18:53;;;;;;;46.80;28.13;;;;;;;7.98;59.77;100128.78;5093626;28;20024;-50
2021/12/18 08:21:18;;;;;;;46.80;33.40;;;;;;;7.97;59.38;100124.53;5093683;28;20024;-50
2021/12/18 08:23:44;;;;;;;41.92;28.60;;;;;;;7.98;59.50;100135.81;5094071;28;20098;-50
2021/12/18 08:26:10;;;;;;;41.60;27.73;;;;;;;8.07;59.63;100132.31;5093500;28;20043;-50
2021/12/18 08:28:36;;;;;;;45.50;30.15;;;;;;;8.10;59.12;100136.41;5093291;28;20052;-50
2021/12/18 08:31:02;;;;;;;48.03;28.50;;;;;;;8.22;59.17;100143.06;5093532;28;20052;-50
2021/12/18 08:33:27;;;;;;;40.15;28.52;;;;;;;8.34;58.30;100141.88;5093368;28;20027;-50
2021/12/18 08:35:53;;;;;;;38.15;26.90;;;;;;;8.27;58.12;100153.06;5093356;28;20521;-50
2021/12/18 08:38:21;;;;;;;42.08;25.33;;;;;;;8.31;58.10;100146.56;5093235;28;20532;-50
2021/12/18 08:40:47;;;;;;;37.45;25.48;;;;;;;8.47;58.48;100141.53;5091941;28;20016;-50
2021/12/18 08:43:13;;;;;;;38.10;24.67;;;;;;;8.55;57.88;100140.75;5091925;28;20044;-50
2021/12/18 08:45:39;;;;;;;34.08;25.73;;;;;;;8.52;57.91;100151.56;5093233;28;20020;-51
2021/12/18 08:48:05;;;;;;;41.92;30.65;;;;;;;8.62;57.84;100151.47;5093093;28;20073;-50
2021/12/18 08:50:31;;;;;;;41.63;27.42;;;;;;;8.55;57.55;100153.84;5093128;28;20013;-50
2021/12/18 08:52:57;;;;;;;36.75;24.98;;;;;;;8.58;57.53;100150.94;5091703;28;20031;-50
2021/12/18 08:55:23;;;;;;;37.70;26.17;;;;;;;8.62;56.92;100154.09;5091622;28;20028;-50
2021/12/18 08:57:50;;;;;;;39.05;25.73;;;;;;;8.48;56.87;100155.44;5092976;28;20028;-51
2021/12/18 09:00:20;;;;;;;35.35;23.13;;;;;;;8.35;57.45;100155.75;5092923;28;20016;-51
2021/12/18 09:02:48;;;;;;;32.38;23.60;;;;;;;8.47;57.84;100159.84;5091620;28;20447;-50
2021/12/18 09:05:15;;;;;;;31.92;22.40;;;;;;;8.60;57.04;100157.66;5092802;28;20099;-50
2021/12/18 09:07:41;;;;;;;31.17;21.67;;;;;;;8.47;56.22;100161.63;5092735;28;20047;-50
2021/12/18 09:10:08;;;;;;;32.20;20.60;;;;;;;8.40;57.49;100158.78;5092755;28;20449;-50
2021/12/18 09:12:34;;;;;;;89.05;71.55;;;;;;;8.44;56.44;100170.59;5092625;28;20025;-50
2021/12/18 09:15:00;;;;;;;35.88;24.83;;;;;;;8.14;57.46;100161.28;5092712;28;20043;-50
2021/12/18 09:17:26;;;;;;;37.67;24.05;;;;;;;8.22;57.31;100171.03;5092583;28;20484;-50
2021/12/18 09:19:51;;;;;;;37.33;23.58;;;;;;;8.12;57.74;100176.31;5092683;28;20094;-50
2021/12/18 09:22:18;;;;;;;30.83;22.17;;;;;;;8.12;58.25;100166.66;5090971;28;20024;-50
2021/12/18 09:24:44;;;;;;;31.92;23.48;;;;;;;8.31;57.82;100172.72;5092574;28;20378;-50
2021/12/18 09:27:10;;;;;;;30.30;21.25;;;;;;;8.49;57.31;100178.00;5091202;28;20085;-50
2021/12/18 09:29:36;;;;;;;33.55;24.85;;;;;;;8.65;56.58;100179.94;5092194;28;20044;-50
2021/12/18 09:32:02;;;;;;;32.78;22.73;;;;;;;8.77;56.01;100176.09;5092315;28;20052;-50
2021/12/18 09:34:30;;;;;;;30.33;21.42;;;;;;;8.77;56.59;100171.72;5091017;28;20405;-50
2021/12/18 09:36:56;;;;;;;30.73;17.85;;;;;;;8.75;56.10;100178.06;5091046;28;20028;-50
2021/12/18 09:39:22;;;;;;;30.02;19.75;;;;;;;8.64;56.00;100175.69;5090915;28;20031;-50
2021/12/18 09:41:50;;;;;;;27.38;20.52;;;;;;;8.50;55.72;100175.25;5092228;28;20016;-50
2021/12/18 09:44:36;;;;;;;31.75;20.15;;;;;;;8.64;56.58;100171.28;5092195;28;20028;-50
2021/12/18 09:47:03;;;;;;;25.55;18.48;;;;;;;9.06;55.71;100173.22;5091823;28;20055;-50
2021/12/18 09:49:29;;;;;;;26.48;18.10;;;;;;;9.27;54.95;100182.53;5092429;28;20067;-51
2021/12/18 09:51:55;;;;;;;28.33;18.08;;;;;;;9.28;54.91;100173.69;5090672;28;20031;-50
2021/12/18 09:54:23;;;;;;;24.50;17.35;;;;;;;9.24;54.24;100182.84;5092091;28;20398;-50
2021/12/18 09:56:50;;;;;;;26.15;19.23;;;;;;;9.31;54.18;100170.75;5092081;28;20012;-50
2021/12/18 09:59:15;;;;;;;21.48;14.13;;;;;;;9.41;53.22;100168.84;5090699;28;20028;-50
2021/12/18 10:01:41;;;;;;;23.98;17.10;;;;;;;9.39;53.72;100168.97;5091914;28;20016;-51
2021/12/18 10:04:33;;;;;;;23.63;15.88;;;;;;;9.33;53.19;100168.78;5091962;28;20497;-50
2021/12/18 10:07:02;;;;;;;23.08;17.77;;;;;;;9.36;53.81;100165.88;5091936;28;20065;-51
2021/12/18 10:09:34;;;;;;;24.75;15.73;;;;;;;9.52;54.12;100165.16;5091857;28;20023;-50
2021/12/18 10:12:17;;;;;;;21.80;15.57;;;;;;;9.83;53.16;100161.97;5090448;28;20505;-50
2021/12/18 10:14:51;;;;;;;27.10;16.52;;;;;;;9.78;52.53;100167.72;5091855;28;20131;-51
2021/12/18 10:17:29;;;;;;;24.15;15.52;;;;;;;9.63;52.69;100166.66;5091849;28;20582;-51
2021/12/18 10:20:17;;;;;;;19.63;15.70;;;;;;;9.65;53.09;100157.66;5091782;28;20577;-50
2021/12/18 10:22:49;;;;;;;23.20;15.73;;;;;;;9.75;52.55;100157.53;5091821;28;20028;-50
2021/12/18 10:25:19;;;;;;;20.77;15.70;;;;;;;9.69;52.03;100161.59;5090459;28;20489;-51
2021/12/18 10:28:03;;;;;;;19.95;15.30;;;;;;;9.67;52.74;100160.13;5091751;28;20017;-51
2021/12/18 10:30:30;;;;;;;17.58;13.52;;;;;;;9.66;52.60;100159.31;5091590;28;20032;-51
2021/12/18 10:33:06;;;;;;;20.17;14.13;;;;;;;9.72;52.38;100163.09;5090285;28;20052;-50
2021/12/18 10:35:36;;;;;;;17.48;13.23;;;;;;;9.68;52.32;100166.97;5094665;28;20028;-50
2021/12/18 10:38:02;;;;;;;19.25;15.02;;;;;;;9.60;51.91;100162.56;5094613;28;20096;-51
2021/12/18 10:40:44;;;;;;;18.67;14.38;;;;;;;9.46;52.83;100158.72;5095590;28;20066;-50
2021/12/18 10:43:10;;;;;;;17.63;13.77;;;;;;;9.31;52.64;100162.88;5095692;28;20035;-50
2021/12/18 10:45:37;;;;;;;21.23;14.10;;;;;;;9.31;52.41;100155.03;5095515;28;20028;-50
2021/12/18 10:48:05;;;;;;;16.70;13.75;;;;;;;9.46;52.59;100160.53;5095531;28;20039;-50
2021/12/18 10:50:39;;;;;;;38.70;31.02;;;;;;;9.62;52.06;100149.28;5094110;28;20012;-50
2021/12/18 10:53:16;;;;;;;15.93;13.32;;;;;;;9.70;51.23;100160.63;5095430;28;20024;-51
2021/12/18 10:55:59;;;;;;;130.38;90.15;;;;;;;9.63;51.29;100151.75;5095402;28;20028;-50
2021/12/18 10:58:39;;;;;;;95.05;79.38;;;;;;;9.49;51.63;100157.59;5095920;28;20161;-50
2021/12/18 11:01:13;;;;;;;52.13;39.25;;;;;;;9.59;52.06;100147.78;5093943;28;20024;-51
2021/12/18 11:03:51;;;;;;;36.03;25.20;;;;;;;9.91;51.97;100149.72;5093971;28;20035;-50
2021/12/18 11:06:25;;;;;;;60.03;51.90;;;;;;;10.13;50.82;100152.72;5093900;28;20505;-51
2021/12/18 11:09:04;;;;;;;16.65;13.52;;;;;;;9.99;50.29;100149.72;5093753;28;20016;-50
2021/12/18 11:14:04;;;;;;;20.08;14.15;;;;;;;9.52;51.44;100155.47;5095143;28;20112;-51
2021/12/18 11:16:35;;;;;;;23.75;14.45;;;;;;;9.38;51.36;100148.19;5094976;28;20055;-51
2021/12/18 11:19:04;;;;;;;17.90;13.85;;;;;;;9.57;51.59;100147.13;5094977;28;20041;-51
2021/12/18 11:21:30;;;;;;;15.80;12.13;;;;;;;9.96;51.15;100136.09;5094923;28;20036;-51
2021/12/18 11:24:05;;;;;;;16.67;12.93;;;;;;;10.35;50.29;100140.81;5093522;28;20017;-51
2021/12/18 11:26:53;;;;;;;15.43;12.73;;;;;;;10.48;49.56;100138.50;5093527;28;20111;-50
2021/12/18 11:29:46;;;;;;;20.80;13.50;;;;;;;10.36;49.95;100132.78;5083494;28;20040;-51
2021/12/18 11:32:22;;;;;;;17.95;11.52;;;;;;;10.94;49.65;100141.44;5094663;28;20084;-50
2021/12/18 11:34:51;;;;;;;18.75;13.65;;;;;;;11.24;47.85;100140.88;5094660;28;20028;-51
2021/12/18 11:37:19;;;;;;;15.98;12.48;;;;;;;11.06;47.68;100144.53;5093274;28;20016;-50
2021/12/18 11:39:47;;;;;;;16.83;13.07;;;;;;;10.71;48.00;100138.69;5094531;28;20493;-50
2021/12/18 11:42:17;;;;;;;15.73;12.90;;;;;;;10.29;48.85;100137.00;5094465;28;20059;-50
2021/12/18 11:44:52;;;;;;;14.20;12.13;;;;;;;10.24;49.26;100152.41;5094387;28;20039;-51
2021/12/18 11:47:37;;;;;;;18.08;12.95;;;;;;;10.25;49.70;100153.22;5094496;28;20028;-51
2021/12/18 11:50:06;;;;;;;21.00;14.82;;;;;;;10.23;49.38;100148.13;5094646;28;20047;-50
2021/12/18 11:52:53;;;;;;;18.50;12.98;;;;;;;10.17;49.76;100144.34;5092878;28;20028;-51
2021/12/18 11:55:20;;;;;;;17.83;14.73;;;;;;;10.43;49.61;100145.25;5094192;28;20036;-50
2021/12/18 11:57:50;;;;;;;16.40;13.20;;;;;;;10.58;49.01;100143.59;5094189;28;20020;-50
2021/12/18 12:00:15;;;;;;;22.23;16.45;;;;;;;10.44;48.89;100145.06;5093105;28;20032;-51